createdAt,value
2018-11-03T00:02:23.846Z,99517.00
2018-11-03T00:04:52.611Z,99516.00
2018-11-03T00:07:21.393Z,99517.00
2018-11-03T00:09:50.076Z,99519.00
2018-11-03T00:12:18.766Z,99524.00
2018-11-03T00:14:47.451Z,99518.00
2018-11-03T00:17:16.332Z,99519.00
2018-11-03T00:19:45.034Z,99525.00
2018-11-03T00:22:13.759Z,99518.00
2018-11-03T00:24:42.602Z,99518.00
2018-11-03T00:27:11.691Z,99521.00
2018-11-03T00:29:40.600Z,99520.00
2018-11-03T00:32:09.390Z,99519.00
2018-11-03T00:34:38.175Z,99522.00
2018-11-03T00:37:06.739Z,99518.00
2018-11-03T00:39:35.451Z,99502.00
2018-11-03T00:42:04.334Z,99499.00
2018-11-03T00:44:33.227Z,99501.00
2018-11-03T00:47:02.028Z,99503.00
2018-11-03T00:49:30.824Z,99501.00
2018-11-03T00:51:59.441Z,99500.00
2018-11-03T00:54:28.104Z,99505.00
2018-11-03T00:56:56.868Z,99498.00
2018-11-03T00:59:25.921Z,99495.00
2018-11-03T01:01:54.538Z,99492.00
2018-11-03T01:04:23.253Z,99489.00
2018-11-03T01:06:51.906Z,99487.00
2018-11-03T01:09:20.655Z,99487.00
2018-11-03T01:11:49.540Z,99481.00
2018-11-03T01:14:18.242Z,99476.00
2018-11-03T01:16:47.091Z,99476.00
2018-11-03T01:19:15.711Z,99482.00
2018-11-03T01:21:44.555Z,99485.00
2018-11-03T01:24:13.693Z,99477.00
2018-11-03T01:26:42.342Z,99467.00
2018-11-03T01:29:10.983Z,99467.00
2018-11-03T01:31:39.609Z,99465.00
2018-11-03T01:34:08.178Z,99455.00
2018-11-03T01:36:37.168Z,99459.00
2018-11-03T01:39:08.685Z,99457.00
2018-11-03T01:41:37.775Z,99452.00
2018-11-03T01:44:06.433Z,99454.00
2018-11-03T01:46:35.249Z,99449.00
2018-11-03T01:49:03.879Z,99453.00
2018-11-03T01:51:32.473Z,99467.00
2018-11-03T01:54:01.138Z,99473.00
2018-11-03T01:56:29.664Z,99479.00
2018-11-03T01:58:59.581Z,99477.00
2018-11-03T02:01:28.227Z,99479.00
2018-11-03T02:03:56.878Z,99486.00
2018-11-03T02:06:25.545Z,99481.00
2018-11-03T02:08:54.321Z,99489.00
2018-11-03T02:11:22.901Z,99487.00
2018-11-03T02:13:51.578Z,99485.00
2018-11-03T02:16:20.377Z,99478.00
2018-11-03T02:18:49.193Z,99479.00
2018-11-03T02:21:17.939Z,99486.00
2018-11-03T02:23:46.648Z,99495.00
2018-11-03T02:26:15.329Z,99483.00
2018-11-03T02:28:43.876Z,99488.00
2018-11-03T02:31:12.448Z,99495.00
2018-11-03T02:33:41.074Z,99494.00
2018-11-03T02:36:09.807Z,99495.00
2018-11-03T02:38:38.443Z,99496.00
2018-11-03T02:41:07.159Z,99507.00
2018-11-03T02:43:36.156Z,99526.00
2018-11-03T02:46:05.058Z,99514.00
2018-11-03T02:48:33.949Z,99523.00
2018-11-03T02:51:02.604Z,99522.00
2018-11-03T02:53:31.239Z,99520.00
2018-11-03T02:55:59.871Z,99525.00
2018-11-03T02:58:28.799Z,99516.00
2018-11-03T03:00:57.822Z,99529.00
2018-11-03T03:03:27.572Z,99539.00
2018-11-03T03:05:56.290Z,99522.00
2018-11-03T03:08:25.078Z,99529.00
2018-11-03T03:10:53.660Z,99534.00
2018-11-03T03:13:22.269Z,99534.00
2018-11-03T03:15:50.894Z,99533.00
2018-11-03T03:18:19.601Z,99538.00
2018-11-03T03:20:48.210Z,99550.00
2018-11-03T03:23:16.981Z,99545.00
2018-11-03T03:25:46.012Z,99548.00
2018-11-03T03:28:14.784Z,99539.00
2018-11-03T03:30:44.384Z,99554.00
2018-11-03T03:33:12.965Z,99552.00
2018-11-03T03:35:41.541Z,99551.00
2018-11-03T03:38:10.137Z,99556.00
2018-11-03T03:40:38.803Z,99557.00
2018-11-03T03:43:07.605Z,99547.00
2018-11-03T03:45:36.238Z,99553.00
2018-11-03T03:48:05.126Z,99543.00
2018-11-03T03:50:33.679Z,99555.00
2018-11-03T03:53:02.293Z,99550.00
2018-11-03T03:55:30.839Z,99544.00
2018-11-03T03:57:59.533Z,99547.00
2018-11-03T04:00:28.137Z,99550.00
2018-11-03T04:02:57.017Z,99548.00
2018-11-03T04:05:25.853Z,99547.00
2018-11-03T04:07:54.490Z,99548.00
2018-11-03T04:10:23.039Z,99552.00
2018-11-03T04:12:51.749Z,99549.00
2018-11-03T04:15:20.323Z,99540.00
2018-11-03T04:17:49.232Z,99540.00
2018-11-03T04:20:18.027Z,99547.00
2018-11-03T04:22:46.591Z,99544.00
2018-11-03T04:25:15.301Z,99563.00
2018-11-03T04:27:43.954Z,99560.00
2018-11-03T04:30:13.796Z,99566.00
2018-11-03T04:32:43.084Z,99564.00
2018-11-03T04:35:12.004Z,99563.00
2018-11-03T04:37:40.976Z,99552.00
2018-11-03T04:40:11.318Z,99556.00
2018-11-03T04:42:40.210Z,99544.00
2018-11-03T04:45:09.265Z,99543.00
2018-11-03T04:47:37.852Z,99537.00
2018-11-03T04:50:07.180Z,99532.00
2018-11-03T04:52:35.757Z,99535.00
2018-11-03T04:55:04.670Z,99528.00
2018-11-03T04:57:33.260Z,99529.00
2018-11-03T05:00:02.181Z,99532.00
2018-11-03T05:02:30.926Z,99529.00
2018-11-03T05:04:59.577Z,99532.00
2018-11-03T05:07:28.174Z,99527.00
2018-11-03T05:09:57.119Z,99525.00
2018-11-03T05:12:25.641Z,99533.00
2018-11-03T05:14:54.407Z,99544.00
2018-11-03T05:17:23.149Z,99543.00
2018-11-03T05:19:51.916Z,99551.00
2018-11-03T05:22:20.598Z,99548.00
2018-11-03T05:24:49.351Z,99551.00
2018-11-03T05:27:17.954Z,99551.00
2018-11-03T05:29:46.581Z,99544.00
2018-11-03T05:32:15.239Z,99540.00
2018-11-03T05:34:43.846Z,99546.00
2018-11-03T05:37:12.491Z,99541.00
2018-11-03T05:39:41.141Z,99538.00
2018-11-03T05:42:09.744Z,99548.00
2018-11-03T05:44:38.308Z,99547.00
2018-11-03T05:47:06.892Z,99548.00
2018-11-03T05:49:35.658Z,99549.00
2018-11-03T05:52:04.274Z,99552.00
2018-11-03T05:54:33.084Z,99565.00
2018-11-03T05:57:01.746Z,99561.00
2018-11-03T05:59:30.309Z,99575.00
2018-11-03T06:01:58.931Z,99582.00
2018-11-03T06:04:27.672Z,99584.00
2018-11-03T06:06:56.254Z,99589.00
2018-11-03T06:09:24.928Z,99581.00
2018-11-03T06:11:53.499Z,99589.00
2018-11-03T06:14:22.073Z,99588.00
2018-11-03T06:16:50.644Z,99580.00
2018-11-03T06:19:19.261Z,99589.00
2018-11-03T06:21:54.408Z,99588.00
2018-11-03T06:24:23.008Z,99589.00
2018-11-03T06:26:51.817Z,99581.00
2018-11-03T06:29:20.371Z,99583.00
2018-11-03T06:31:49.064Z,99581.00
2018-11-03T06:34:17.652Z,99593.00
2018-11-03T06:36:46.627Z,99592.00
2018-11-03T06:39:15.288Z,99594.00
2018-11-03T06:41:44.330Z,99592.00
2018-11-03T06:44:12.897Z,99598.00
2018-11-03T06:46:41.725Z,99591.00
2018-11-03T06:49:15.774Z,99578.00
2018-11-03T06:51:44.392Z,99589.00
2018-11-03T06:54:13.329Z,99592.00
2018-11-03T06:56:42.069Z,99587.00
2018-11-03T06:59:11.064Z,99594.00
2018-11-03T07:01:40.025Z,99598.00
2018-11-03T07:04:10.362Z,99590.00
2018-11-03T07:06:39.324Z,99587.00
2018-11-03T07:09:10.287Z,99586.00
2018-11-03T07:11:39.864Z,99592.00
2018-11-03T07:14:09.088Z,99597.00
2018-11-03T07:16:38.094Z,99592.00
2018-11-03T07:19:06.979Z,99592.00
2018-11-03T07:21:36.123Z,99595.00
2018-11-03T07:24:04.677Z,99596.00
2018-11-03T07:26:33.506Z,99590.00
2018-11-03T07:29:02.177Z,99593.00
2018-11-03T07:31:31.498Z,99588.00
2018-11-03T07:34:00.325Z,99589.00
2018-11-03T07:36:29.113Z,99580.00
2018-11-03T07:38:57.732Z,99602.00
2018-11-03T07:41:26.811Z,99596.00
2018-11-03T07:43:55.558Z,99602.00
2018-11-03T07:46:24.568Z,99608.00
2018-11-03T07:48:53.293Z,99600.00
2018-11-03T07:51:21.901Z,99609.00
2018-11-03T07:53:50.591Z,99617.00
2018-11-03T07:56:19.158Z,99597.00
2018-11-03T07:58:47.842Z,99602.00
2018-11-03T08:01:16.609Z,99605.00
2018-11-03T08:03:45.222Z,99609.00
2018-11-03T08:06:13.938Z,99602.00
2018-11-03T08:08:42.509Z,99606.00
2018-11-03T08:11:11.375Z,99607.00
2018-11-03T08:13:40.227Z,99602.00
2018-11-03T08:16:09.314Z,99593.00
2018-11-03T08:18:38.152Z,99602.00
2018-11-03T08:21:07.274Z,99589.00
2018-11-03T08:23:36.034Z,99586.00
2018-11-03T08:26:04.788Z,99580.00
2018-11-03T08:28:36.660Z,99571.00
2018-11-03T08:31:05.609Z,99575.00
2018-11-03T08:33:34.318Z,99579.00
2018-11-03T08:36:03.337Z,99591.00
2018-11-03T08:38:31.965Z,99596.00
2018-11-03T08:41:01.874Z,99586.00
2018-11-03T08:43:30.589Z,99586.00
2018-11-03T08:45:59.277Z,99578.00
2018-11-03T08:48:28.177Z,99578.00
2018-11-03T08:50:57.148Z,99585.00
2018-11-03T08:53:25.848Z,99572.00
2018-11-03T08:55:54.459Z,99574.00
2018-11-03T08:58:23.550Z,99575.00
2018-11-03T09:00:52.234Z,99565.00
2018-11-03T09:03:20.819Z,99567.00
2018-11-03T09:05:50.857Z,99573.00
2018-11-03T09:08:19.465Z,99570.00
2018-11-03T09:10:48.053Z,99580.00
2018-11-03T09:13:17.906Z,99569.00
2018-11-03T09:15:46.579Z,99572.00
2018-11-03T09:18:15.116Z,99572.00
2018-11-03T09:20:44.984Z,99571.00
2018-11-03T09:23:13.515Z,99574.00
2018-11-03T09:25:42.449Z,99579.00
2018-11-03T09:28:11.149Z,99563.00
2018-11-03T09:30:39.808Z,99578.00
2018-11-03T09:33:08.519Z,99572.00
2018-11-03T09:35:37.363Z,99577.00
2018-11-03T09:38:06.120Z,99578.00
2018-11-03T09:40:34.665Z,99574.00
2018-11-03T09:43:03.308Z,99578.00
2018-11-03T09:45:31.747Z,99579.00
2018-11-03T09:48:00.530Z,99572.00
2018-11-03T09:50:29.454Z,99577.00
2018-11-03T09:52:58.138Z,99579.00
2018-11-03T09:55:27.279Z,99581.00
2018-11-03T09:57:55.728Z,99571.00
2018-11-03T10:00:24.299Z,99562.00
2018-11-03T10:02:52.916Z,99567.00
2018-11-03T10:05:21.437Z,99563.00
2018-11-03T10:07:49.954Z,99561.00
2018-11-03T10:10:19.907Z,99547.00
2018-11-03T10:12:48.485Z,99553.00
2018-11-03T10:15:18.341Z,99560.00
2018-11-03T10:17:47.196Z,99549.00
2018-11-03T10:20:15.744Z,99556.00
2018-11-03T10:22:44.184Z,99566.00
2018-11-03T10:25:17.894Z,99553.00
2018-11-03T10:27:47.001Z,99542.00
2018-11-03T10:30:16.806Z,99543.00
2018-11-03T10:32:45.630Z,99549.00
2018-11-03T10:35:14.918Z,99543.00
2018-11-03T10:37:44.110Z,99547.00
2018-11-03T10:40:14.724Z,99537.00
2018-11-03T10:42:44.372Z,99543.00
2018-11-03T10:45:14.712Z,99538.00
2018-11-03T10:47:43.895Z,99537.00
2018-11-03T10:50:14.718Z,99532.00
2018-11-03T10:52:44.261Z,99528.00
2018-11-03T10:55:14.205Z,99533.00
2018-11-03T10:57:43.727Z,99538.00
2018-11-03T11:00:19.164Z,99536.00
2018-11-03T11:02:53.558Z,99545.00
2018-11-03T11:05:27.804Z,99536.00
2018-11-03T11:08:01.937Z,99532.00
2018-11-03T11:10:35.753Z,99537.00
2018-11-03T11:13:09.692Z,99536.00
2018-11-03T11:15:38.671Z,99520.00
2018-11-03T11:18:08.083Z,99516.00
2018-11-03T11:20:36.972Z,99515.00
2018-11-03T11:23:05.687Z,99507.00
2018-11-03T11:25:34.434Z,99498.00
2018-11-03T11:28:02.977Z,99500.00
2018-11-03T11:30:36.767Z,99508.00
2018-11-03T11:33:06.983Z,99506.00
2018-11-03T11:35:35.933Z,99498.00
2018-11-03T11:38:05.099Z,99493.00
2018-11-03T11:40:34.229Z,99494.00
2018-11-03T11:43:03.038Z,99492.00
2018-11-03T11:45:31.499Z,99498.00
2018-11-03T11:48:00.185Z,99497.00
2018-11-03T11:50:28.761Z,99487.00
2018-11-03T11:52:57.298Z,99494.00
2018-11-03T11:55:25.908Z,99497.00
2018-11-03T11:57:54.615Z,99479.00
2018-11-03T12:00:23.196Z,99473.00
2018-11-03T12:02:51.827Z,99480.00
2018-11-03T12:05:20.511Z,99479.00
2018-11-03T12:07:49.060Z,99475.00
2018-11-03T12:10:17.728Z,99472.00
2018-11-03T12:12:46.249Z,99472.00
2018-11-03T12:15:14.707Z,99471.00
2018-11-03T12:17:43.523Z,99470.00
2018-11-03T12:20:12.044Z,99469.00
2018-11-03T12:22:52.623Z,99461.00
2018-11-03T12:25:21.277Z,99462.00
2018-11-03T12:27:50.476Z,99462.00
2018-11-03T12:30:19.831Z,99458.00
2018-11-03T12:32:48.464Z,99469.00
2018-11-03T12:35:17.011Z,99464.00
2018-11-03T12:37:45.734Z,99463.00
2018-11-03T12:40:15.493Z,99464.00
2018-11-03T12:42:44.200Z,99434.00
2018-11-03T12:45:14.117Z,99444.00
2018-11-03T12:47:42.891Z,99434.00
2018-11-03T12:50:17.632Z,99430.00
2018-11-03T12:52:46.500Z,99428.00
2018-11-03T12:55:14.975Z,99426.00
2018-11-03T12:57:44.005Z,99418.00
2018-11-03T13:00:14.340Z,99418.00
2018-11-03T13:02:44.272Z,99413.00
2018-11-03T13:05:14.344Z,99411.00
2018-11-03T13:07:44.244Z,99414.00
2018-11-03T13:10:13.194Z,99416.00
2018-11-03T13:12:42.791Z,99410.00
2018-11-03T13:15:12.969Z,99402.00
2018-11-03T13:17:41.653Z,99416.00
2018-11-03T13:20:11.940Z,99411.00
2018-11-03T13:22:41.121Z,99406.00
2018-11-03T13:25:10.635Z,99403.00
2018-11-03T13:27:40.120Z,99399.00
2018-11-03T13:30:12.075Z,99417.00
2018-11-03T13:32:40.734Z,99407.00
2018-11-03T13:35:10.794Z,99398.00
2018-11-03T13:37:39.615Z,99404.00
2018-11-03T13:40:09.761Z,99398.00
2018-11-03T13:42:38.463Z,99404.00
2018-11-03T13:45:08.245Z,99399.00
2018-11-03T13:47:37.969Z,99400.00
2018-11-03T13:50:13.144Z,99400.00
2018-11-03T13:52:43.757Z,99403.00
2018-11-03T13:55:12.759Z,99383.00
2018-11-03T13:57:42.820Z,99384.00
2018-11-03T14:00:13.789Z,99393.00
2018-11-03T14:02:43.584Z,99388.00
2018-11-03T14:05:12.561Z,99387.00
2018-11-03T14:07:41.320Z,99377.00
2018-11-03T14:10:14.525Z,99376.00
2018-11-03T14:12:43.946Z,99383.00
2018-11-03T14:15:13.936Z,99377.00
2018-11-03T14:17:42.641Z,99400.00
2018-11-03T14:20:13.423Z,99380.00
2018-11-03T14:22:42.892Z,99378.00
2018-11-03T14:25:13.104Z,99382.00
2018-11-03T14:27:43.266Z,99374.00
2018-11-03T14:30:13.055Z,99356.00
2018-11-03T14:32:41.850Z,99367.00
2018-11-03T14:35:11.427Z,99353.00
2018-11-03T14:37:40.645Z,99371.00
2018-11-03T14:40:11.704Z,99370.00
2018-11-03T14:42:41.947Z,99374.00
2018-11-03T14:45:11.790Z,99357.00
2018-11-03T14:47:40.627Z,99362.00
2018-11-03T14:50:09.704Z,99368.00
2018-11-03T14:52:39.640Z,99365.00
2018-11-03T14:55:09.719Z,99365.00
2018-11-03T14:57:38.629Z,99361.00
2018-11-03T15:00:15.524Z,99355.00
2018-11-03T15:02:44.400Z,99364.00
2018-11-03T15:05:13.527Z,99355.00
2018-11-03T15:07:42.326Z,99354.00
2018-11-03T15:10:11.831Z,99351.00
2018-11-03T15:12:41.284Z,99350.00
2018-11-03T15:15:11.766Z,99343.00
2018-11-03T15:17:40.294Z,99343.00
2018-11-03T15:20:10.065Z,99352.00
2018-11-03T15:22:38.780Z,99342.00
2018-11-03T15:25:09.303Z,99328.00
2018-11-03T15:27:38.953Z,99339.00
2018-11-03T15:30:08.834Z,99338.00
2018-11-03T15:32:38.065Z,99334.00
2018-11-03T15:35:07.333Z,99329.00
2018-11-03T15:37:35.903Z,99326.00
2018-11-03T15:40:05.145Z,99335.00
2018-11-03T15:42:33.754Z,99327.00
2018-11-03T15:45:02.398Z,99326.00
2018-11-03T15:47:31.315Z,99339.00
2018-11-03T15:50:00.331Z,99337.00
2018-11-03T15:52:28.937Z,99335.00
2018-11-03T15:54:57.491Z,99336.00
2018-11-03T15:57:26.488Z,99323.00
2018-11-03T15:59:55.021Z,99334.00
2018-11-03T16:02:23.752Z,99331.00
2018-11-03T16:04:52.723Z,99338.00
2018-11-03T16:07:21.389Z,99338.00
2018-11-03T16:09:49.998Z,99333.00
2018-11-03T16:12:18.848Z,99327.00
2018-11-03T16:14:47.336Z,99322.00
2018-11-03T16:17:16.087Z,99332.00
2018-11-03T16:19:45.525Z,99326.00
2018-11-03T16:22:14.302Z,99332.00
2018-11-03T16:24:43.503Z,99333.00
2018-11-03T16:27:12.071Z,99326.00
2018-11-03T16:29:40.722Z,99335.00
2018-11-03T16:32:10.555Z,99327.00
2018-11-03T16:34:39.142Z,99326.00
2018-11-03T16:37:07.910Z,99329.00
2018-11-03T16:39:36.788Z,99332.00
2018-11-03T16:42:06.058Z,99331.00
2018-11-03T16:44:34.794Z,99332.00
2018-11-03T16:47:03.515Z,99331.00
2018-11-03T16:49:32.358Z,99335.00
2018-11-03T16:52:08.940Z,99341.00
2018-11-03T16:54:37.564Z,99337.00
2018-11-03T16:57:06.652Z,99346.00
2018-11-03T16:59:35.513Z,99342.00
2018-11-03T17:02:04.667Z,99340.00
2018-11-03T17:04:33.260Z,99341.00
2018-11-03T17:07:02.023Z,99330.00
2018-11-03T17:09:30.640Z,99342.00
2018-11-03T17:11:59.201Z,99333.00
2018-11-03T17:14:27.855Z,99344.00
2018-11-03T17:16:56.665Z,99334.00
2018-11-03T17:19:25.379Z,99336.00
2018-11-03T17:21:54.389Z,99328.00
2018-11-03T17:24:23.235Z,99326.00
2018-11-03T17:26:51.928Z,99332.00
2018-11-03T17:29:20.610Z,99330.00
2018-11-03T17:31:49.712Z,99328.00
2018-11-03T17:34:18.500Z,99328.00
2018-11-03T17:36:47.335Z,99328.00
2018-11-03T17:39:16.021Z,99324.00
2018-11-03T17:41:45.031Z,99317.00
2018-11-03T17:44:13.849Z,99318.00
2018-11-03T17:46:42.587Z,99319.00
2018-11-03T17:49:11.257Z,99317.00
2018-11-03T17:51:40.367Z,99320.00
2018-11-03T17:54:09.043Z,99320.00
2018-11-03T17:56:38.098Z,99322.00
2018-11-03T17:59:06.719Z,99318.00
2018-11-03T18:01:35.639Z,99316.00
2018-11-03T18:04:04.630Z,99316.00
2018-11-03T18:06:33.459Z,99310.00
2018-11-03T18:09:02.237Z,99308.00
2018-11-03T18:11:31.123Z,99292.00
2018-11-03T18:13:59.937Z,99310.00
2018-11-03T18:16:29.848Z,99296.00
2018-11-03T18:18:58.550Z,99295.00
2018-11-03T18:21:27.775Z,99297.00
2018-11-03T18:23:56.471Z,99291.00
2018-11-03T18:26:25.301Z,99287.00
2018-11-03T18:28:54.006Z,99282.00
2018-11-03T18:31:22.770Z,99274.00
2018-11-03T18:33:51.497Z,99283.00
2018-11-03T18:36:20.160Z,99280.00
2018-11-03T18:38:48.932Z,99284.00
2018-11-03T18:41:17.824Z,99286.00
2018-11-03T18:43:46.633Z,99282.00
2018-11-03T18:46:15.282Z,99279.00
2018-11-03T18:48:44.060Z,99283.00
2018-11-03T18:51:12.839Z,99283.00
2018-11-03T18:53:41.802Z,99274.00
2018-11-03T18:56:10.364Z,99272.00
2018-11-03T18:58:39.157Z,99283.00
2018-11-03T19:01:07.920Z,99276.00
2018-11-03T19:03:36.542Z,99274.00
2018-11-03T19:06:05.951Z,99273.00
2018-11-03T19:08:35.136Z,99268.00
2018-11-03T19:11:03.814Z,99274.00
2018-11-03T19:13:32.549Z,99270.00
2018-11-03T19:16:02.638Z,99264.00
2018-11-03T19:18:31.242Z,99268.00
2018-11-03T19:20:59.990Z,99271.00
2018-11-03T19:23:28.566Z,99271.00
2018-11-03T19:25:57.347Z,99276.00
2018-11-03T19:28:26.042Z,99268.00
2018-11-03T19:30:54.712Z,99265.00
2018-11-03T19:33:23.445Z,99264.00
2018-11-03T19:35:52.433Z,99259.00
2018-11-03T19:38:21.199Z,99269.00
2018-11-03T19:40:50.010Z,99263.00
2018-11-03T19:43:18.616Z,99265.00
2018-11-03T19:45:47.241Z,99259.00
2018-11-03T19:48:16.332Z,99262.00
2018-11-03T19:50:45.246Z,99256.00
2018-11-03T19:53:13.937Z,99258.00
2018-11-03T19:55:43.661Z,99253.00
2018-11-03T19:58:12.203Z,99250.00
2018-11-03T20:00:40.969Z,99255.00
2018-11-03T20:03:09.627Z,99246.00
2018-11-03T20:05:38.355Z,99246.00
2018-11-03T20:08:07.067Z,99250.00
2018-11-03T20:10:35.643Z,99238.00
2018-11-03T20:13:04.293Z,99234.00
2018-11-03T20:15:32.784Z,99239.00
2018-11-03T20:18:01.594Z,99240.00
2018-11-03T20:20:30.353Z,99236.00
2018-11-03T20:22:58.986Z,99240.00
2018-11-03T20:25:27.681Z,99233.00
2018-11-03T20:27:56.599Z,99228.00
2018-11-03T20:30:25.273Z,99232.00
2018-11-03T20:32:53.905Z,99232.00
2018-11-03T20:35:22.592Z,99228.00
2018-11-03T20:37:51.363Z,99230.00
2018-11-03T20:40:20.415Z,99224.00
2018-11-03T20:42:50.027Z,99222.00
2018-11-03T20:45:18.817Z,99216.00
2018-11-03T20:47:48.805Z,99224.00
2018-11-03T20:50:17.890Z,99219.00
2018-11-03T20:52:47.008Z,99205.00
2018-11-03T20:55:16.068Z,99211.00
2018-11-03T20:57:45.141Z,99210.00
2018-11-03T21:00:15.733Z,99201.00
2018-11-03T21:02:46.543Z,99206.00
2018-11-03T21:05:15.699Z,99212.00
2018-11-03T21:07:45.118Z,99199.00
2018-11-03T21:10:14.418Z,99187.00
2018-11-03T21:12:43.375Z,99184.00
2018-11-03T21:15:12.455Z,99194.00
2018-11-03T21:17:41.471Z,99183.00
2018-11-03T21:20:10.464Z,99185.00
2018-11-03T21:22:39.328Z,99182.00
2018-11-03T21:25:07.963Z,99186.00
2018-11-03T21:27:36.617Z,99186.00
2018-11-03T21:30:05.844Z,99162.00
2018-11-03T21:32:34.701Z,99180.00
2018-11-03T21:35:03.214Z,99179.00
2018-11-03T21:37:31.846Z,99176.00
2018-11-03T21:40:00.495Z,99173.00
2018-11-03T21:42:29.054Z,99172.00
2018-11-03T21:44:58.103Z,99166.00
2018-11-03T21:47:26.688Z,99165.00
2018-11-03T21:49:55.215Z,99163.00
2018-11-03T21:52:23.867Z,99168.00
2018-11-03T21:54:52.488Z,99156.00
2018-11-03T21:57:21.059Z,99157.00
2018-11-03T21:59:49.679Z,99162.00
2018-11-03T22:02:18.248Z,99151.00
2018-11-03T22:04:46.911Z,99161.00
2018-11-03T22:07:15.464Z,99165.00
2018-11-03T22:09:44.006Z,99155.00
2018-11-03T22:12:12.566Z,99164.00
2018-11-03T22:14:41.194Z,99164.00
2018-11-03T22:17:09.759Z,99140.00
2018-11-03T22:19:38.288Z,99147.00
2018-11-03T22:22:06.860Z,99144.00
2018-11-03T22:24:35.742Z,99133.00
2018-11-03T22:27:04.423Z,99133.00
2018-11-03T22:29:33.021Z,99126.00
2018-11-03T22:32:01.572Z,99132.00
2018-11-03T22:34:30.284Z,99111.00
2018-11-03T22:36:59.532Z,99115.00
2018-11-03T22:39:28.163Z,99123.00
2018-11-03T22:41:56.725Z,99113.00
2018-11-03T22:44:25.328Z,99121.00
2018-11-03T22:46:53.999Z,99122.00
2018-11-03T22:49:22.567Z,99118.00
2018-11-03T22:51:51.218Z,99114.00
2018-11-03T22:54:19.750Z,99106.00
2018-11-03T22:56:48.570Z,99104.00
2018-11-03T22:59:17.271Z,99107.00
2018-11-03T23:01:45.920Z,99113.00
2018-11-03T23:04:14.589Z,99114.00
2018-11-03T23:06:43.169Z,99109.00
2018-11-03T23:09:11.940Z,99116.00
2018-11-03T23:11:40.562Z,99105.00
2018-11-03T23:14:09.133Z,99103.00
2018-11-03T23:16:38.401Z,99097.00
2018-11-03T23:19:08.376Z,99099.00
2018-11-03T23:21:37.296Z,99090.00
2018-11-03T23:24:06.465Z,99099.00
2018-11-03T23:26:35.249Z,99098.00
2018-11-03T23:29:06.580Z,99075.00
2018-11-03T23:31:35.486Z,99083.00
2018-11-03T23:34:04.163Z,99082.00
2018-11-03T23:36:33.096Z,99083.00
2018-11-03T23:39:01.788Z,99078.00
2018-11-03T23:41:30.374Z,99072.00
2018-11-03T23:44:05.724Z,99071.00
2018-11-03T23:46:34.624Z,99064.00
2018-11-03T23:49:03.467Z,99062.00
2018-11-03T23:51:32.213Z,99049.00
2018-11-03T23:54:00.764Z,99040.00
2018-11-03T23:56:29.429Z,99049.00
2018-11-03T23:58:58.131Z,99042.00
